ストックホルム/アーランダ の空港の天気 - METARとTAF

ストックホルム・アーランダ空港 ( ESSA / ARN ) - スウェーデン ストックホルム
飛行場実況気象(Metar)
観測時間10/16 09:50 CEST (10/16 07:50 UTC)
風向・風速東北東 5m/s
視程4200m
天気現象もや
全天を覆う雲 雲底高度 90m
気温8℃
湿度100%
気圧1009hPa
METARESSA 160750Z 07010KT 4200 BR OVC003 08/08 Q1009 NOSIG
過去の天気等 Google飛行場航空写真 Wunderground天気予報

過去48時間のMETAR

飛行場予報(TAF)
発表時間: 10/16 09:25 CEST (10/16 07:25 UTC)
予報対象時間: 16日9時 CEST ~ 17日8時 CEST
風向・風速東北東 4m/s
視程7000m
全天の8割程度の雲 雲底高度 90m
16日9時 CEST ~ 17日8時 CEST に一時的に
視程2000m
天気現象霧雨 もや
全天の8割程度の雲 雲底高度 150m
TAF AMD ESSA 160725Z 1607/1706 07007KT 7000 BKN003
TEMPO 1607/1706 2000 DZ BR BKN005